sensor_id;sensor_type;location;lat;lon;timestamp;pressure;altitude;pressure_sealevel;temperature;humidity
37610;BME280;23457;51.966;8.230;2023-03-15T00:01:44;100329.56;;;3.36;82.24
37610;BME280;23457;51.966;8.230;2023-03-15T00:04:12;100329.69;;;3.16;83.35
37610;BME280;23457;51.966;8.230;2023-03-15T00:06:39;100332.06;;;3.34;83.68
37610;BME280;23457;51.966;8.230;2023-03-15T00:09:06;100330.72;;;3.44;83.08
37610;BME280;23457;51.966;8.230;2023-03-15T00:11:33;100328.47;;;3.51;82.16
37610;BME280;23457;51.966;8.230;2023-03-15T00:13:59;100328.41;;;3.28;83.77
37610;BME280;23457;51.966;8.230;2023-03-15T00:16:27;100331.56;;;3.65;82.20
37610;BME280;23457;51.966;8.230;2023-03-15T00:18:54;100330.28;;;3.54;83.02
37610;BME280;23457;51.966;8.230;2023-03-15T00:21:21;100330.06;;;3.72;81.44
37610;BME280;23457;51.966;8.230;2023-03-15T00:23:49;100333.13;;;3.39;82.81
37610;BME280;23457;51.966;8.230;2023-03-15T00:26:16;100341.00;;;3.66;82.26
37610;BME280;23457;51.966;8.230;2023-03-15T00:28:42;100343.16;;;3.55;82.66
37610;BME280;23457;51.966;8.230;2023-03-15T00:33:39;100338.75;;;3.97;81.25
37610;BME280;23457;51.966;8.230;2023-03-15T00:36:08;100337.22;;;4.03;80.76
37610;BME280;23457;51.966;8.230;2023-03-15T00:38:37;100346.78;;;4.07;80.84
37610;BME280;23457;51.966;8.230;2023-03-15T00:41:09;100350.72;;;3.97;81.38
37610;BME280;23457;51.966;8.230;2023-03-15T00:43:36;100355.41;;;3.85;82.67
37610;BME280;23457;51.966;8.230;2023-03-15T00:46:03;100360.56;;;3.85;82.40
37610;BME280;23457;51.966;8.230;2023-03-15T00:48:30;100367.19;;;3.78;83.33
37610;BME280;23457;51.966;8.230;2023-03-15T00:51:19;100371.59;;;3.60;84.09
37610;BME280;23457;51.966;8.230;2023-03-15T00:53:47;100366.88;;;3.71;84.03
37610;BME280;23457;51.966;8.230;2023-03-15T00:56:18;100371.59;;;3.60;84.35
37610;BME280;23457;51.966;8.230;2023-03-15T00:58:46;100364.97;;;3.65;85.19
37610;BME280;23457;51.966;8.230;2023-03-15T01:01:18;100372.13;;;3.51;87.68
37610;BME280;23457;51.966;8.230;2023-03-15T01:03:45;100374.78;;;3.53;88.77
37610;BME280;23457;51.966;8.230;2023-03-15T01:06:15;100379.31;;;3.38;90.31
37610;BME280;23457;51.966;8.230;2023-03-15T01:08:42;100374.88;;;3.56;91.32
37610;BME280;23457;51.966;8.230;2023-03-15T01:11:12;100379.50;;;3.65;92.15
37610;BME280;23457;51.966;8.230;2023-03-15T01:13:39;100389.94;;;3.69;91.83
37610;BME280;23457;51.966;8.230;2023-03-15T01:16:07;100390.66;;;3.65;92.48
37610;BME280;23457;51.966;8.230;2023-03-15T01:18:34;100396.59;;;3.86;91.56
37610;BME280;23457;51.966;8.230;2023-03-15T01:21:08;100407.72;;;3.63;92.46
37610;BME280;23457;51.966;8.230;2023-03-15T01:23:34;100407.22;;;3.29;99.10
37610;BME280;23457;51.966;8.230;2023-03-15T01:26:03;100417.97;;;2.99;100.00
37610;BME280;23457;51.966;8.230;2023-03-15T01:28:30;100417.16;;;3.21;100.00
37610;BME280;23457;51.966;8.230;2023-03-15T01:30:57;100423.03;;;3.18;100.00
37610;BME280;23457;51.966;8.230;2023-03-15T01:33:25;100426.06;;;3.08;100.00
37610;BME280;23457;51.966;8.230;2023-03-15T01:36:04;100419.34;;;3.12;100.00
37610;BME280;23457;51.966;8.230;2023-03-15T01:38:33;100425.91;;;3.05;100.00
37610;BME280;23457;51.966;8.230;2023-03-15T01:41:00;100426.59;;;2.80;100.00
37610;BME280;23457;51.966;8.230;2023-03-15T01:43:29;100425.91;;;3.05;100.00
37610;BME280;23457;51.966;8.230;2023-03-15T01:48:41;100419.88;;;2.63;100.00
37610;BME280;23457;51.966;8.230;2023-03-15T01:51:41;100419.16;;;2.66;100.00
37610;BME280;23457;51.966;8.230;2023-03-15T01:57:12;100412.53;;;2.51;100.00
37610;BME280;23457;51.966;8.230;2023-03-15T01:59:49;100405.66;;;2.50;100.00
37610;BME280;23457;51.966;8.230;2023-03-15T02:02:19;100413.88;;;2.63;100.00
37610;BME280;23457;51.966;8.230;2023-03-15T02:04:56;100418.06;;;2.41;100.00
37610;BME280;23457;51.966;8.230;2023-03-15T02:07:25;100418.69;;;2.36;100.00
37610;BME280;23457;51.966;8.230;2023-03-15T02:10:01;100421.31;;;2.37;100.00
37610;BME280;23457;51.966;8.230;2023-03-15T02:12:35;100425.44;;;2.34;100.00
37610;BME280;23457;51.966;8.230;2023-03-15T02:15:04;100431.22;;;2.49;100.00
37610;BME280;23457;51.966;8.230;2023-03-15T02:17:40;100436.88;;;2.42;100.00
37610;BME280;23457;51.966;8.230;2023-03-15T02:22:57;100428.78;;;2.33;100.00
37610;BME280;23457;51.966;8.230;2023-03-15T02:27:53;100433.19;;;2.35;100.00
37610;BME280;23457;51.966;8.230;2023-03-15T02:30:20;100440.75;;;2.51;100.00
37610;BME280;23457;51.966;8.230;2023-03-15T02:32:48;100444.25;;;2.15;100.00
37610;BME280;23457;51.966;8.230;2023-03-15T02:35:27;100449.91;;;2.08;100.00
37610;BME280;23457;51.966;8.230;2023-03-15T02:37:54;100448.97;;;2.44;100.00
37610;BME280;23457;51.966;8.230;2023-03-15T02:40:23;100453.41;;;2.29;100.00
37610;BME280;23457;51.966;8.230;2023-03-15T02:42:52;100454.91;;;2.24;100.00
37610;BME280;23457;51.966;8.230;2023-03-15T02:45:24;100452.25;;;2.40;100.00
37610;BME280;23457;51.966;8.230;2023-03-15T02:47:52;100459.09;;;2.22;100.00
37610;BME280;23457;51.966;8.230;2023-03-15T02:50:19;100460.50;;;2.54;100.00
37610;BME280;23457;51.966;8.230;2023-03-15T02:52:45;100464.44;;;2.65;100.00
37610;BME280;23457;51.966;8.230;2023-03-15T02:55:12;100468.56;;;2.62;100.00
37610;BME280;23457;51.966;8.230;2023-03-15T02:57:39;100470.75;;;2.15;100.00
37610;BME280;23457;51.966;8.230;2023-03-15T03:00:06;100477.28;;;2.09;100.00
37610;BME280;23457;51.966;8.230;2023-03-15T03:02:44;100473.34;;;2.35;100.00
37610;BME280;23457;51.966;8.230;2023-03-15T03:05:13;100478.34;;;2.32;100.00
37610;BME280;23457;51.966;8.230;2023-03-15T03:07:40;100485.53;;;2.21;100.00
37610;BME280;23457;51.966;8.230;2023-03-15T03:10:14;100483.13;;;2.24;100.00
37610;BME280;23457;51.966;8.230;2023-03-15T03:12:48;100496.91;;;2.26;100.00
37610;BME280;23457;51.966;8.230;2023-03-15T03:15:24;100506.34;;;2.27;100.00
37610;BME280;23457;51.966;8.230;2023-03-15T03:17:51;100513.09;;;2.25;100.00
37610;BME280;23457;51.966;8.230;2023-03-15T03:20:17;100516.22;;;2.37;100.00
37610;BME280;23457;51.966;8.230;2023-03-15T03:22:45;100517.91;;;2.19;100.00
37610;BME280;23457;51.966;8.230;2023-03-15T03:25:12;100523.34;;;2.25;100.00
37610;BME280;23457;51.966;8.230;2023-03-15T03:27:39;100519.13;;;2.08;100.00
37610;BME280;23457;51.966;8.230;2023-03-15T03:30:10;100528.09;;;2.35;100.00
37610;BME280;23457;51.966;8.230;2023-03-15T03:32:43;100537.31;;;2.32;100.00
37610;BME280;23457;51.966;8.230;2023-03-15T03:35:11;100545.78;;;2.11;100.00
37610;BME280;23457;51.966;8.230;2023-03-15T03:37:41;100546.44;;;2.25;100.00
37610;BME280;23457;51.966;8.230;2023-03-15T03:40:13;100552.78;;;2.33;100.00
37610;BME280;23457;51.966;8.230;2023-03-15T03:42:40;100547.19;;;2.42;100.00
37610;BME280;23457;51.966;8.230;2023-03-15T03:45:07;100554.00;;;2.41;100.00
37610;BME280;23457;51.966;8.230;2023-03-15T03:47:40;100558.63;;;2.31;100.00
37610;BME280;23457;51.966;8.230;2023-03-15T03:50:09;100563.44;;;2.42;100.00
37610;BME280;23457;51.966;8.230;2023-03-15T03:52:38;100569.50;;;2.25;100.00
37610;BME280;23457;51.966;8.230;2023-03-15T03:55:13;100563.59;;;2.45;100.00
37610;BME280;23457;51.966;8.230;2023-03-15T03:57:41;100563.81;;;2.69;100.00
37610;BME280;23457;51.966;8.230;2023-03-15T04:00:13;100566.22;;;2.47;100.00
37610;BME280;23457;51.966;8.230;2023-03-15T04:02:40;100575.22;;;2.57;100.00
37610;BME280;23457;51.966;8.230;2023-03-15T04:05:12;100582.47;;;2.65;100.00
37610;BME280;23457;51.966;8.230;2023-03-15T04:07:39;100583.47;;;2.49;100.00
37610;BME280;23457;51.966;8.230;2023-03-15T04:10:09;100589.66;;;2.55;100.00
37610;BME280;23457;51.966;8.230;2023-03-15T04:12:42;100593.41;;;2.43;100.00
37610;BME280;23457;51.966;8.230;2023-03-15T04:15:10;100595.03;;;2.41;100.00
37610;BME280;23457;51.966;8.230;2023-03-15T04:17:38;100593.41;;;2.43;100.00
37610;BME280;23457;51.966;8.230;2023-03-15T04:20:05;100600.69;;;2.52;100.00
37610;BME280;23457;51.966;8.230;2023-03-15T04:22:36;100607.75;;;2.38;100.00
37610;BME280;23457;51.966;8.230;2023-03-15T04:25:23;100608.88;;;2.63;100.00
37610;BME280;23457;51.966;8.230;2023-03-15T04:28:02;100612.38;;;2.65;100.00
37610;BME280;23457;51.966;8.230;2023-03-15T04:30:49;100614.41;;;2.35;100.00
37610;BME280;23457;51.966;8.230;2023-03-15T04:33:30;100616.50;;;2.61;100.00
37610;BME280;23457;51.966;8.230;2023-03-15T04:36:06;100613.28;;;2.47;100.00
37610;BME280;23457;51.966;8.230;2023-03-15T04:38:51;100620.44;;;2.55;100.00
37610;BME280;23457;51.966;8.230;2023-03-15T04:41:49;100626.44;;;2.73;100.00
37610;BME280;23457;51.966;8.230;2023-03-15T04:44:25;100628.06;;;2.71;100.00
37610;BME280;23457;51.966;8.230;2023-03-15T04:46:53;100633.91;;;2.68;100.00
37610;BME280;23457;51.966;8.230;2023-03-15T04:49:43;100640.06;;;2.72;100.00
37610;BME280;23457;51.966;8.230;2023-03-15T04:52:28;100632.63;;;2.59;100.00
37610;BME280;23457;51.966;8.230;2023-03-15T04:55:24;100637.59;;;2.73;100.00
37610;BME280;23457;51.966;8.230;2023-03-15T04:58:10;100633.66;;;2.62;100.00
37610;BME280;23457;51.966;8.230;2023-03-15T05:00:56;100641.63;;;2.68;100.00
37610;BME280;23457;51.966;8.230;2023-03-15T05:03:27;100637.72;;;2.76;100.00
37610;BME280;23457;51.966;8.230;2023-03-15T05:06:28;100639.56;;;2.98;100.00
37610;BME280;23457;51.966;8.230;2023-03-15T05:09:05;100625.78;;;2.96;100.00
37610;BME280;23457;51.966;8.230;2023-03-15T05:11:51;100641.84;;;2.73;100.00
37610;BME280;23457;51.966;8.230;2023-03-15T05:14:38;100653.44;;;2.65;100.00
37610;BME280;23457;51.966;8.230;2023-03-15T05:17:12;100659.66;;;2.70;100.00
37610;BME280;23457;51.966;8.230;2023-03-15T05:19:49;100653.06;;;2.75;100.00
37610;BME280;23457;51.966;8.230;2023-03-15T05:22:35;100662.53;;;2.76;100.00
37610;BME280;23457;51.966;8.230;2023-03-15T05:25:14;100664.72;;;2.68;100.00
37610;BME280;23457;51.966;8.230;2023-03-15T05:28:16;100666.91;;;2.78;100.00
37610;BME280;23457;51.966;8.230;2023-03-15T05:31:07;100668.72;;;2.81;100.00
37610;BME280;23457;51.966;8.230;2023-03-15T05:34:08;100668.84;;;2.65;100.00
37610;BME280;23457;51.966;8.230;2023-03-15T05:36:56;100669.28;;;2.38;100.00
37610;BME280;23457;51.966;8.230;2023-03-15T05:39:33;100679.69;;;2.41;100.00
37610;BME280;23457;51.966;8.230;2023-03-15T05:42:38;100689.22;;;2.62;100.00
37610;BME280;23457;51.966;8.230;2023-03-15T05:45:43;100691.91;;;2.29;100.00
37610;BME280;23457;51.966;8.230;2023-03-15T05:48:25;100705.50;;;2.62;100.00
37610;BME280;23457;51.966;8.230;2023-03-15T05:51:11;100713.75;;;2.57;100.00
37610;BME280;23457;51.966;8.230;2023-03-15T05:53:57;100716.91;;;2.33;100.00
37610;BME280;23457;51.966;8.230;2023-03-15T05:56:34;100729.84;;;2.53;100.00
37610;BME280;23457;51.966;8.230;2023-03-15T05:59:32;100730.41;;;2.47;100.00
37610;BME280;23457;51.966;8.230;2023-03-15T06:02:17;100747.28;;;2.60;100.00
37610;BME280;23457;51.966;8.230;2023-03-15T06:04:55;100750.41;;;2.36;100.00
37610;BME280;23457;51.966;8.230;2023-03-15T06:07:25;100760.56;;;2.51;100.00
37610;BME280;23457;51.966;8.230;2023-03-15T06:09:51;100770.88;;;2.53;100.00
37610;BME280;23457;51.966;8.230;2023-03-15T06:12:18;100770.22;;;2.57;100.00
37610;BME280;23457;51.966;8.230;2023-03-15T06:14:46;100773.25;;;2.66;100.00
37610;BME280;23457;51.966;8.230;2023-03-15T06:17:12;100778.50;;;2.69;100.00
37610;BME280;23457;51.966;8.230;2023-03-15T06:19:42;100776.00;;;2.70;100.00
37610;BME280;23457;51.966;8.230;2023-03-15T06:22:09;100786.13;;;2.49;100.00
37610;BME280;23457;51.966;8.230;2023-03-15T06:24:49;100784.97;;;2.61;100.00
37610;BME280;23457;51.966;8.230;2023-03-15T06:27:16;100788.63;;;2.66;100.00
37610;BME280;23457;51.966;8.230;2023-03-15T06:29:48;100796.63;;;2.72;100.00
37610;BME280;23457;51.966;8.230;2023-03-15T06:32:18;100800.34;;;2.61;100.00
37610;BME280;23457;51.966;8.230;2023-03-15T06:34:45;100807.69;;;2.71;100.00
37610;BME280;23457;51.966;8.230;2023-03-15T06:37:13;100800.72;;;2.50;100.00
37610;BME280;23457;51.966;8.230;2023-03-15T06:39:54;100811.59;;;2.63;100.00
37610;BME280;23457;51.966;8.230;2023-03-15T06:42:21;100804.91;;;2.84;100.00
37610;BME280;23457;51.966;8.230;2023-03-15T06:44:48;100802.13;;;2.62;100.00
37610;BME280;23457;51.966;8.230;2023-03-15T06:47:17;100812.47;;;2.81;100.00
37610;BME280;23457;51.966;8.230;2023-03-15T06:49:44;100820.63;;;2.90;100.00
37610;BME280;23457;51.966;8.230;2023-03-15T06:52:16;100824.69;;;2.69;100.00
37610;BME280;23457;51.966;8.230;2023-03-15T06:54:43;100827.41;;;2.72;100.00
37610;BME280;23457;51.966;8.230;2023-03-15T06:57:10;100832.09;;;2.63;100.00
37610;BME280;23457;51.966;8.230;2023-03-15T06:59:37;100843.13;;;2.78;100.00
37610;BME280;23457;51.966;8.230;2023-03-15T07:02:03;100847.03;;;2.87;100.00
37610;BME280;23457;51.966;8.230;2023-03-15T07:04:30;100853.09;;;3.07;100.00
37610;BME280;23457;51.966;8.230;2023-03-15T07:06:56;100846.88;;;3.20;100.00
37610;BME280;23457;51.966;8.230;2023-03-15T07:09:23;100854.41;;;2.81;100.00
37610;BME280;23457;51.966;8.230;2023-03-15T07:11:50;100858.38;;;2.93;100.00
37610;BME280;23457;51.966;8.230;2023-03-15T07:14:16;100854.22;;;3.12;100.00
37610;BME280;23457;51.966;8.230;2023-03-15T07:16:43;100863.53;;;3.10;100.00
37610;BME280;23457;51.966;8.230;2023-03-15T07:19:09;100864.63;;;2.98;100.00
37610;BME280;23457;51.966;8.230;2023-03-15T07:21:36;100867.88;;;3.29;100.00
37610;BME280;23457;51.966;8.230;2023-03-15T07:24:03;100868.22;;;3.37;100.00
37610;BME280;23457;51.966;8.230;2023-03-15T07:26:29;100879.53;;;3.22;100.00
37610;BME280;23457;51.966;8.230;2023-03-15T07:28:56;100874.66;;;2.93;100.00
37610;BME280;23457;51.966;8.230;2023-03-15T07:31:23;100874.97;;;3.35;100.00
37610;BME280;23457;51.966;8.230;2023-03-15T07:33:49;100878.69;;;3.59;100.00
37610;BME280;23457;51.966;8.230;2023-03-15T07:36:16;100873.63;;;3.43;100.00
37610;BME280;23457;51.966;8.230;2023-03-15T07:38:42;100881.31;;;3.60;100.00
37610;BME280;23457;51.966;8.230;2023-03-15T07:41:09;100876.97;;;3.40;100.00
37610;BME280;23457;51.966;8.230;2023-03-15T07:43:39;100894.84;;;3.56;100.00
37610;BME280;23457;51.966;8.230;2023-03-15T07:46:12;100890.66;;;3.58;100.00
37610;BME280;23457;51.966;8.230;2023-03-15T07:48:39;100898.75;;;3.48;100.00
37610;BME280;23457;51.966;8.230;2023-03-15T07:51:06;100901.97;;;3.81;100.00
37610;BME280;23457;51.966;8.230;2023-03-15T07:53:33;100908.78;;;3.79;100.00
37610;BME280;23457;51.966;8.230;2023-03-15T07:55:59;100911.44;;;3.45;100.00
37610;BME280;23457;51.966;8.230;2023-03-15T07:58:26;100905.50;;;3.83;100.00
37610;BME280;23457;51.966;8.230;2023-03-15T08:00:54;100916.69;;;3.84;100.00
37610;BME280;23457;51.966;8.230;2023-03-15T08:03:22;100917.41;;;3.81;100.00
37610;BME280;23457;51.966;8.230;2023-03-15T08:05:50;100923.13;;;3.93;100.00
37610;BME280;23457;51.966;8.230;2023-03-15T08:08:16;100928.81;;;4.06;100.00
37610;BME280;23457;51.966;8.230;2023-03-15T08:10:44;100927.50;;;4.14;100.00
37610;BME280;23457;51.966;8.230;2023-03-15T08:13:11;100930.41;;;3.84;100.00
37610;BME280;23457;51.966;8.230;2023-03-15T08:15:37;100942.50;;;4.05;100.00
37610;BME280;23457;51.966;8.230;2023-03-15T08:18:04;100943.56;;;3.90;100.00
37610;BME280;23457;51.966;8.230;2023-03-15T08:20:32;100953.84;;;3.90;100.00
37610;BME280;23457;51.966;8.230;2023-03-15T08:23:01;100957.22;;;4.26;100.00
37610;BME280;23457;51.966;8.230;2023-03-15T08:25:28;100955.97;;;4.57;100.00
37610;BME280;23457;51.966;8.230;2023-03-15T08:27:55;100959.56;;;4.60;100.00
37610;BME280;23457;51.966;8.230;2023-03-15T08:30:22;100964.59;;;4.57;100.00
37610;BME280;23457;51.966;8.230;2023-03-15T08:32:49;100973.97;;;4.55;100.00
37610;BME280;23457;51.966;8.230;2023-03-15T08:35:20;100981.09;;;3.87;100.00
37610;BME280;23457;51.966;8.230;2023-03-15T08:37:47;100983.53;;;4.21;100.00
37610;BME280;23457;51.966;8.230;2023-03-15T08:40:15;100994.41;;;4.52;100.00
37610;BME280;23457;51.966;8.230;2023-03-15T08:42:44;101001.72;;;4.06;100.00
37610;BME280;23457;51.966;8.230;2023-03-15T08:45:11;100996.78;;;4.48;100.00
37610;BME280;23457;51.966;8.230;2023-03-15T08:47:38;101005.69;;;4.17;100.00
37610;BME280;23457;51.966;8.230;2023-03-15T08:50:10;101013.16;;;4.30;100.00
37610;BME280;23457;51.966;8.230;2023-03-15T08:52:38;101011.63;;;4.53;100.00
37610;BME280;23457;51.966;8.230;2023-03-15T08:55:05;101014.56;;;4.24;100.00
37610;BME280;23457;51.966;8.230;2023-03-15T08:57:33;101013.50;;;4.57;100.00
37610;BME280;23457;51.966;8.230;2023-03-15T09:00:02;101013.97;;;4.49;100.00
37610;BME280;23457;51.966;8.230;2023-03-15T09:02:33;101014.72;;;4.46;100.00
37610;BME280;23457;51.966;8.230;2023-03-15T09:05:00;101026.59;;;4.62;100.00
37610;BME280;23457;51.966;8.230;2023-03-15T09:07:27;101024.34;;;4.69;100.00
37610;BME280;23457;51.966;8.230;2023-03-15T09:09:53;101039.63;;;4.28;100.00
37610;BME280;23457;51.966;8.230;2023-03-15T09:12:20;101037.84;;;4.64;100.00
37610;BME280;23457;51.966;8.230;2023-03-15T09:14:47;101030.28;;;5.07;100.00
37610;BME280;23457;51.966;8.230;2023-03-15T09:17:13;101039.25;;;4.96;100.00
37610;BME280;23457;51.966;8.230;2023-03-15T09:19:40;101033.41;;;5.19;100.00
37610;BME280;23457;51.966;8.230;2023-03-15T09:22:07;101037.41;;;5.33;100.00
37610;BME280;23457;51.966;8.230;2023-03-15T09:24:49;101043.22;;;5.28;100.00
37610;BME280;23457;51.966;8.230;2023-03-15T09:27:18;101044.22;;;5.52;99.18
37610;BME280;23457;51.966;8.230;2023-03-15T09:29:44;101044.66;;;5.63;99.75
37610;BME280;23457;51.966;8.230;2023-03-15T09:32:11;101045.88;;;5.92;98.85
37610;BME280;23457;51.966;8.230;2023-03-15T09:34:38;101052.16;;;5.98;94.10
37610;BME280;23457;51.966;8.230;2023-03-15T09:37:08;101057.72;;;5.47;97.15
37610;BME280;23457;51.966;8.230;2023-03-15T09:39:35;101059.81;;;5.76;96.55
37610;BME280;23457;51.966;8.230;2023-03-15T09:42:02;101065.66;;;5.91;94.55
37610;BME280;23457;51.966;8.230;2023-03-15T09:44:46;101062.25;;;5.92;94.04
37610;BME280;23457;51.966;8.230;2023-03-15T09:55:29;101056.50;;;6.22;90.67
37610;BME280;23457;51.966;8.230;2023-03-15T09:58:03;101052.16;;;6.65;89.19
37610;BME280;23457;51.966;8.230;2023-03-15T10:00:37;101065.19;;;6.68;88.62
37610;BME280;23457;51.966;8.230;2023-03-15T10:03:04;101056.91;;;7.01;88.29
37610;BME280;23457;51.966;8.230;2023-03-15T10:05:43;101061.75;;;6.45;85.83
37610;BME280;23457;51.966;8.230;2023-03-15T10:08:16;101064.16;;;6.41;83.09
37610;BME280;23457;51.966;8.230;2023-03-15T10:11:12;101057.66;;;6.74;84.24
37610;BME280;23457;51.966;8.230;2023-03-15T10:14:12;101062.53;;;6.43;83.52
37610;BME280;23457;51.966;8.230;2023-03-15T10:16:48;101056.63;;;6.25;86.41
37610;BME280;23457;51.966;8.230;2023-03-15T10:19:17;101055.00;;;6.27;82.78
37610;BME280;23457;51.966;8.230;2023-03-15T10:24:46;101063.50;;;6.93;80.57
37610;BME280;23457;51.966;8.230;2023-03-15T10:27:31;101054.69;;;6.88;81.80
37610;BME280;23457;51.966;8.230;2023-03-15T10:30:00;101056.50;;;6.66;81.33
37610;BME280;23457;51.966;8.230;2023-03-15T10:32:36;101062.88;;;7.00;79.41
37610;BME280;23457;51.966;8.230;2023-03-15T10:35:13;101065.91;;;7.12;78.38
37610;BME280;23457;51.966;8.230;2023-03-15T10:37:41;101057.28;;;6.88;76.89
37610;BME280;23457;51.966;8.230;2023-03-15T10:40:11;101056.63;;;7.17;78.33
37610;BME280;23457;51.966;8.230;2023-03-15T10:42:45;101053.53;;;7.27;78.96
37610;BME280;23457;51.966;8.230;2023-03-15T10:45:23;101062.78;;;7.21;77.15
37610;BME280;23457;51.966;8.230;2023-03-15T10:47:51;101064.03;;;6.84;71.73
37610;BME280;23457;51.966;8.230;2023-03-15T10:50:28;101065.66;;;6.80;75.41
37610;BME280;23457;51.966;8.230;2023-03-15T10:52:58;101061.66;;;7.38;72.83
37610;BME280;23457;51.966;8.230;2023-03-15T10:55:31;101052.94;;;7.60;72.59
37610;BME280;23457;51.966;8.230;2023-03-15T10:58:16;101051.16;;;7.59;70.24
37610;BME280;23457;51.966;8.230;2023-03-15T11:00:49;101057.16;;;7.58;66.37
37610;BME280;23457;51.966;8.230;2023-03-15T11:03:31;101063.59;;;7.96;65.59
37610;BME280;23457;51.966;8.230;2023-03-15T11:06:24;101067.66;;;8.16;61.70
37610;BME280;23457;51.966;8.230;2023-03-15T11:09:13;101070.09;;;8.11;60.41
37610;BME280;23457;51.966;8.230;2023-03-15T11:12:01;101078.97;;;7.66;58.82
37610;BME280;23457;51.966;8.230;2023-03-15T11:14:42;101087.56;;;7.65;59.27
37610;BME280;23457;51.966;8.230;2023-03-15T11:17:24;101090.06;;;7.88;60.23
37610;BME280;23457;51.966;8.230;2023-03-15T11:22:42;101093.03;;;7.74;60.64
37610;BME280;23457;51.966;8.230;2023-03-15T11:25:14;101103.50;;;7.77;60.03
37610;BME280;23457;51.966;8.230;2023-03-15T11:27:42;101104.41;;;8.31;56.90
37610;BME280;23457;51.966;8.230;2023-03-15T11:30:14;101099.53;;;8.40;57.22
37610;BME280;23457;51.966;8.230;2023-03-15T11:32:42;101107.41;;;8.72;55.73
37610;BME280;23457;51.966;8.230;2023-03-15T11:35:13;101105.81;;;9.07;55.06
37610;BME280;23457;51.966;8.230;2023-03-15T11:37:54;101104.56;;;8.92;54.83
37610;BME280;23457;51.966;8.230;2023-03-15T11:40:42;101091.28;;;9.12;54.81
37610;BME280;23457;51.966;8.230;2023-03-15T11:43:20;101092.34;;;9.51;54.31
37610;BME280;23457;51.966;8.230;2023-03-15T11:45:56;101102.31;;;9.05;52.39
37610;BME280;23457;51.966;8.230;2023-03-15T11:48:49;101097.47;;;9.17;53.20
37610;BME280;23457;51.966;8.230;2023-03-15T11:51:16;101110.13;;;9.36;51.51
37610;BME280;23457;51.966;8.230;2023-03-15T11:53:46;101105.19;;;9.80;51.40
37610;BME280;23457;51.966;8.230;2023-03-15T11:56:25;101109.78;;;8.94;50.70
37610;BME280;23457;51.966;8.230;2023-03-15T12:04:44;101115.38;;;9.08;53.21
37610;BME280;23457;51.966;8.230;2023-03-15T12:10:17;101112.53;;;8.98;51.67
37610;BME280;23457;51.966;8.230;2023-03-15T12:12:45;101117.84;;;9.67;51.53
37610;BME280;23457;51.966;8.230;2023-03-15T12:18:13;101119.13;;;9.50;51.28
37610;BME280;23457;51.966;8.230;2023-03-15T12:20:44;101121.16;;;9.60;50.76
37610;BME280;23457;51.966;8.230;2023-03-15T12:23:37;101125.34;;;8.94;49.05
37610;BME280;23457;51.966;8.230;2023-03-15T12:26:48;101126.00;;;9.48;49.91
37610;BME280;23457;51.966;8.230;2023-03-15T12:29:38;101134.78;;;9.22;48.36
37610;BME280;23457;51.966;8.230;2023-03-15T12:32:42;101130.13;;;9.42;49.52
37610;BME280;23457;51.966;8.230;2023-03-15T12:35:26;101125.25;;;9.21;48.72
37610;BME280;23457;51.966;8.230;2023-03-15T12:37:59;101133.75;;;8.87;49.55
37610;BME280;23457;51.966;8.230;2023-03-15T12:40:39;101125.72;;;8.49;48.69
37610;BME280;23457;51.966;8.230;2023-03-15T12:49:28;101131.75;;;9.07;48.72
37610;BME280;23457;51.966;8.230;2023-03-15T12:52:27;101123.09;;;9.38;49.62
37610;BME280;23457;51.966;8.230;2023-03-15T12:55:17;101119.28;;;9.56;49.60
37610;BME280;23457;51.966;8.230;2023-03-15T12:58:02;101109.06;;;9.29;47.93
37610;BME280;23457;51.966;8.230;2023-03-15T13:00:58;101113.69;;;9.41;49.59
37610;BME280;23457;51.966;8.230;2023-03-15T13:04:00;101117.75;;;9.64;48.73
37610;BME280;23457;51.966;8.230;2023-03-15T13:06:54;101096.81;;;10.24;44.40
37610;BME280;23457;51.966;8.230;2023-03-15T13:12:12;101111.13;;;10.84;45.78
37610;BME280;23457;51.966;8.230;2023-03-15T13:15:08;101116.88;;;10.31;44.33
37610;BME280;23457;51.966;8.230;2023-03-15T13:17:56;101123.34;;;9.80;44.51
37610;BME280;23457;51.966;8.230;2023-03-15T13:23:34;101104.16;;;10.44;46.11
37610;BME280;23457;51.966;8.230;2023-03-15T13:27:07;101128.22;;;9.34;45.77
37610;BME280;23457;51.966;8.230;2023-03-15T13:29:31;101118.59;;;10.68;45.06
37610;BME280;23457;51.966;8.230;2023-03-15T13:32:26;101119.50;;;10.70;43.46
37610;BME280;23457;51.966;8.230;2023-03-15T13:35:18;101120.41;;;10.72;43.01
37610;BME280;23457;51.966;8.230;2023-03-15T13:38:33;101126.28;;;10.26;43.70
37610;BME280;23457;51.966;8.230;2023-03-15T13:41:13;101122.59;;;10.93;41.57
37610;BME280;23457;51.966;8.230;2023-03-15T13:43:42;101127.41;;;11.62;41.71
37610;BME280;23457;51.966;8.230;2023-03-15T13:46:21;101134.63;;;11.32;39.34
37610;BME280;23457;51.966;8.230;2023-03-15T13:48:59;101123.38;;;11.33;39.10
37610;BME280;23457;51.966;8.230;2023-03-15T13:51:46;101127.81;;;10.56;39.23
37610;BME280;23457;51.966;8.230;2023-03-15T13:54:46;101121.69;;;10.93;39.47
37610;BME280;23457;51.966;8.230;2023-03-15T13:57:30;101124.53;;;10.25;40.50
37610;BME280;23457;51.966;8.230;2023-03-15T14:00:19;101128.78;;;10.98;41.31
37610;BME280;23457;51.966;8.230;2023-03-15T14:02:57;101130.63;;;10.65;40.63
37610;BME280;23457;51.966;8.230;2023-03-15T14:05:43;101139.75;;;10.12;39.66
37610;BME280;23457;51.966;8.230;2023-03-15T14:10:57;101146.91;;;9.86;41.04
37610;BME280;23457;51.966;8.230;2023-03-15T14:13:33;101138.28;;;10.21;42.51
37610;BME280;23457;51.966;8.230;2023-03-15T14:16:05;101138.56;;;10.33;41.51
37610;BME280;23457;51.966;8.230;2023-03-15T14:18:37;101144.66;;;10.01;42.53
37610;BME280;23457;51.966;8.230;2023-03-15T14:23:38;101133.22;;;10.27;41.76
37610;BME280;23457;51.966;8.230;2023-03-15T14:26:28;101147.31;;;10.74;42.09